Time;durP1;ratioP1;P1;durP2;ratioP2;P2;SDS_P1;SDS_P2;PMS_P1;PMS_P2;Temp;Humidity;BMP_temperature;BMP_pressure;BME280_temperature;BME280_humidity;BME280_pressure;Samples;Min_cycle;Max_cycle;Signal;HPM_P1;HPM_P2
2022/11/29 00:00:47;;;;;;;0.50;0.50;;;;;;;6.95;100.00;99819.22;5139988;27;20194;-68
2022/11/29 00:03:15;;;;;;;0.60;0.60;;;;;;;6.94;100.00;99815.81;5148695;27;20270;-68
2022/11/29 00:05:41;;;;;;;0.60;0.60;;;;;;;6.93;100.00;99814.13;5134152;27;20190;-68
2022/11/29 00:08:08;;;;;;;0.60;0.60;;;;;;;6.93;100.00;99816.66;5143538;27;20251;-68
2022/11/29 00:10:36;;;;;;;0.60;0.60;;;;;;;6.81;100.00;99796.41;5143470;27;20293;-68
2022/11/29 00:13:03;;;;;;;0.70;0.70;;;;;;;6.86;100.00;99799.72;5141591;27;20242;-68
2022/11/29 00:15:29;;;;;;;0.63;0.63;;;;;;;6.91;100.00;99810.75;5145864;27;20189;-68
2022/11/29 00:17:57;;;;;;;0.57;0.57;;;;;;;6.93;100.00;99806.47;5139894;27;20202;-68
2022/11/29 00:20:24;;;;;;;0.70;0.70;;;;;;;6.94;100.00;99809.88;5147684;27;20572;-68
2022/11/29 00:22:51;;;;;;;0.60;0.60;;;;;;;6.95;100.00;99804.75;5146289;27;20737;-68
2022/11/29 00:25:19;;;;;;;0.60;0.60;;;;;;;6.96;100.00;99806.44;5141463;27;20194;-68
2022/11/29 00:27:46;;;;;;;0.70;0.70;;;;;;;6.92;100.00;99803.91;5145361;27;20657;-68
2022/11/29 00:30:13;;;;;;;0.60;0.60;;;;;;;6.93;100.00;99801.38;5150630;27;20287;-68
2022/11/29 00:32:40;;;;;;;0.60;0.60;;;;;;;6.92;100.00;99799.69;5136613;27;20190;-68
2022/11/29 00:35:09;;;;;;;0.60;0.60;;;;;;;6.96;100.00;99800.50;5145177;27;20610;-68
2022/11/29 00:37:36;;;;;;;0.50;0.50;;;;;;;6.99;100.00;99795.38;5145963;27;20198;-68
2022/11/29 00:40:03;;;;;;;0.83;0.83;;;;;;;7.00;100.00;99803.00;5141354;27;20649;-68
2022/11/29 00:42:30;;;;;;;0.77;0.77;;;;;;;7.00;100.00;99797.06;5142473;27;20570;-68
2022/11/29 00:44:57;;;;;;;0.50;0.50;;;;;;;6.99;100.00;99792.81;5134660;27;20194;-68
2022/11/29 00:47:26;;;;;;;0.70;0.70;;;;;;;6.99;100.00;99788.56;5150439;27;20196;-68
2022/11/29 00:49:53;;;;;;;0.60;0.60;;;;;;;7.00;100.00;99790.28;5145232;27;20577;-68
2022/11/29 00:52:21;;;;;;;0.50;0.50;;;;;;;7.00;100.00;99785.16;5150351;27;20568;-68
2022/11/29 00:54:48;;;;;;;0.93;0.93;;;;;;;7.03;100.00;99790.25;5146545;27;20222;-68
2022/11/29 00:57:14;;;;;;;0.67;0.67;;;;;;;7.04;100.00;99789.38;5140878;27;20205;-68
2022/11/29 00:59:41;;;;;;;0.50;0.50;;;;;;;7.04;100.00;99791.94;5146531;27;20193;-68
2022/11/29 01:02:08;;;;;;;0.53;0.53;;;;;;;7.06;100.00;99789.34;5143187;27;20245;-68
2022/11/29 01:04:35;;;;;;;0.60;0.60;;;;;;;7.06;100.00;99786.81;5145942;27;20240;-68
2022/11/29 01:07:01;;;;;;;0.57;0.57;;;;;;;7.05;100.00;99788.50;5145904;27;20652;-68
2022/11/29 01:09:30;;;;;;;0.60;0.60;;;;;;;7.08;100.00;99788.47;5137075;27;20198;-68
2022/11/29 01:11:56;;;;;;;0.60;0.60;;;;;;;7.11;100.00;99790.19;5137164;27;20206;-68
2022/11/29 01:14:23;;;;;;;0.70;0.70;;;;;;;7.03;100.00;99776.66;5142504;27;20205;-68
2022/11/29 01:16:50;;;;;;;0.67;0.67;;;;;;;7.06;100.00;99787.66;5144571;27;20692;-68
2022/11/29 01:19:17;;;;;;;0.63;0.63;;;;;;;7.05;100.00;99788.50;5147720;27;20707;-68
2022/11/29 01:21:44;;;;;;;0.60;0.60;;;;;;;7.10;100.00;99783.38;5133948;27;20258;-68
2022/11/29 01:24:10;;;;;;;0.60;0.60;;;;;;;7.12;100.00;99782.50;5143472;27;20190;-68
2022/11/29 01:26:38;;;;;;;0.60;0.60;;;;;;;7.12;100.00;99777.41;5145949;27;20238;-68
2022/11/29 01:29:05;;;;;;;0.80;0.80;;;;;;;7.15;100.00;99777.34;5137429;27;20254;-68
2022/11/29 01:31:34;;;;;;;0.60;0.60;;;;;;;7.07;100.00;99763.88;5151837;27;20209;-68
2022/11/29 01:34:03;;;;;;;0.63;0.63;;;;;;;7.13;100.00;99774.00;5143977;27;20217;-68
2022/11/29 01:36:30;;;;;;;0.53;0.53;;;;;;;7.04;100.00;99753.69;5141881;27;20695;-68
2022/11/29 01:38:59;;;;;;;0.40;0.40;;;;;;;7.11;100.00;99764.69;5136683;27;20225;-68
2022/11/29 01:41:27;;;;;;;0.50;0.50;;;;;;;7.15;100.00;99769.72;5140905;27;20276;-68
2022/11/29 01:43:59;;;;;;;0.70;0.70;;;;;;;7.11;100.00;99762.94;5143824;27;20204;-68
2022/11/29 01:46:26;;;;;;;0.60;0.60;;;;;;;7.12;100.00;99766.34;5149038;27;20194;-68
2022/11/29 01:48:57;;;;;;;1.27;1.27;;;;;;;7.09;100.00;99774.88;5150317;27;20205;-68
2022/11/29 01:51:25;;;;;;;0.50;0.50;;;;;;;7.06;100.00;99766.41;5129848;27;20194;-68
2022/11/29 01:53:52;;;;;;;0.60;0.60;;;;;;;7.07;100.00;99768.97;5137370;27;20221;-68
2022/11/29 01:56:20;;;;;;;0.70;0.70;;;;;;;7.07;100.00;99768.97;5145501;27;20242;-68
2022/11/29 01:58:47;;;;;;;0.60;0.60;;;;;;;7.08;100.00;99757.88;5140142;27;20247;-68
2022/11/29 02:01:16;;;;;;;0.53;0.53;;;;;;;7.07;100.00;99766.41;5142094;27;20210;-68
2022/11/29 02:03:42;;;;;;;0.50;0.50;;;;;;;7.08;100.00;99765.53;5134498;27;20221;-68
2022/11/29 02:06:09;;;;;;;0.80;0.80;;;;;;;7.06;100.00;99762.16;5136502;27;20194;-68
2022/11/29 02:08:39;;;;;;;0.80;0.80;;;;;;;7.05;100.00;99760.47;5145902;27;20198;-68
2022/11/29 02:11:32;;;;;;;0.60;0.60;;;;;;;7.07;100.00;99758.75;5136990;27;20213;-68
2022/11/29 02:14:14;;;;;;;0.80;0.80;;;;;;;7.06;100.00;99759.63;5125631;27;20241;-68
2022/11/29 02:16:51;;;;;;;0.50;0.50;;;;;;;7.08;100.00;99754.47;5144352;27;20198;-68
2022/11/29 02:19:34;;;;;;;0.67;0.67;;;;;;;7.10;100.00;99758.72;5138688;27;20581;-68
2022/11/29 02:22:06;;;;;;;0.60;0.60;;;;;;;7.10;100.00;99757.88;5135901;27;20201;-68
2022/11/29 02:25:07;;;;;;;0.60;0.60;;;;;;;7.11;100.00;99762.94;5138997;27;20292;-68
2022/11/29 02:28:13;;;;;;;0.70;0.70;;;;;;;7.12;100.00;99766.34;5134263;27;20192;-68
2022/11/29 02:31:22;;;;;;;0.50;0.50;;;;;;;7.11;100.00;99765.50;5142063;27;20609;-68
2022/11/29 02:34:08;;;;;;;0.50;0.50;;;;;;;7.09;100.00;99764.69;5115358;27;20569;-68
2022/11/29 02:36:51;;;;;;;0.63;0.63;;;;;;;7.10;100.00;99774.03;5143894;27;20193;-68
2022/11/29 02:39:43;;;;;;;0.50;0.50;;;;;;;7.08;100.00;99769.78;5133068;27;20294;-68
2022/11/29 02:42:47;;;;;;;0.60;0.60;;;;;;;7.01;100.00;99763.91;5137070;27;20632;-68
2022/11/29 02:45:32;;;;;;;0.60;0.60;;;;;;;6.96;100.00;99764.81;5138450;27;20272;-68
2022/11/29 02:48:13;;;;;;;0.60;0.60;;;;;;;6.87;100.00;99773.41;5147405;27;20200;-68
2022/11/29 02:50:46;;;;;;;0.60;0.60;;;;;;;6.79;100.00;99764.97;5150682;27;20193;-68
2022/11/29 02:53:20;;;;;;;0.57;0.57;;;;;;;6.74;100.00;99764.19;5144936;27;20219;-68
2022/11/29 02:55:55;;;;;;;0.60;0.60;;;;;;;6.65;100.00;99762.56;5129296;27;20668;-68
2022/11/29 02:58:27;;;;;;;0.60;0.60;;;;;;;6.59;100.00;99759.22;5138252;27;20197;-68
2022/11/29 03:01:04;;;;;;;0.63;0.63;;;;;;;6.59;100.00;99764.31;5139877;27;20185;-68
2022/11/29 03:03:38;;;;;;;0.50;0.50;;;;;;;6.58;100.00;99760.06;5139612;27;20768;-68
2022/11/29 03:06:15;;;;;;;0.53;0.53;;;;;;;6.55;100.00;99763.50;5135064;27;20193;-68
2022/11/29 03:08:50;;;;;;;0.70;0.70;;;;;;;6.52;100.00;99766.06;5142813;27;20201;-68
2022/11/29 03:11:24;;;;;;;0.70;0.70;;;;;;;6.49;100.00;99755.91;5142050;27;20272;-68
2022/11/29 03:13:55;;;;;;;0.53;0.53;;;;;;;6.51;100.00;99755.88;5148191;27;20285;-68
2022/11/29 03:16:34;;;;;;;0.63;0.63;;;;;;;6.52;100.00;99762.69;5142158;27;20638;-68
2022/11/29 03:19:15;;;;;;;0.70;0.70;;;;;;;6.53;100.00;99764.34;5137446;27;20189;-68
2022/11/29 03:21:53;;;;;;;0.60;0.60;;;;;;;6.45;100.00;99761.88;5140962;27;20621;-68
2022/11/29 03:24:25;;;;;;;0.70;0.70;;;;;;;6.45;100.00;99761.03;5137320;27;20310;-68
2022/11/29 03:27:01;;;;;;;0.60;0.60;;;;;;;6.43;100.00;99767.84;5146908;27;20205;-68
2022/11/29 03:29:35;;;;;;;0.50;0.50;;;;;;;6.40;100.00;99758.50;5142804;27;20807;-68
2022/11/29 03:32:08;;;;;;;0.70;0.70;;;;;;;6.43;100.00;99762.75;5141414;27;20242;-68
2022/11/29 03:34:54;;;;;;;0.60;0.60;;;;;;;6.45;100.00;99761.03;5137329;27;20214;-68
2022/11/29 03:37:29;;;;;;;0.60;0.60;;;;;;;6.44;100.00;99760.19;5144386;27;20209;-68
2022/11/29 03:40:04;;;;;;;0.53;0.53;;;;;;;6.45;100.00;99761.03;5152966;27;20288;-68
2022/11/29 03:42:36;;;;;;;0.50;0.50;;;;;;;6.45;100.00;99756.78;5155338;27;20189;-68
2022/11/29 03:45:08;;;;;;;0.77;0.77;;;;;;;6.49;100.00;99760.16;5144290;27;20186;-68
2022/11/29 03:47:42;;;;;;;0.87;0.87;;;;;;;6.54;100.00;99750.75;5144947;27;20194;-68
2022/11/29 03:50:14;;;;;;;0.50;0.50;;;;;;;6.52;100.00;99755.03;5144409;27;20258;-68
2022/11/29 03:52:49;;;;;;;1.00;1.00;;;;;;;6.55;100.00;99760.09;5144643;27;20557;-68
2022/11/29 03:55:33;;;;;;;0.50;0.50;;;;;;;6.51;100.00;99761.81;5144154;27;20353;-68
2022/11/29 03:58:13;;;;;;;0.50;0.50;;;;;;;6.49;100.00;99762.69;5138533;27;20253;-68
2022/11/29 04:00:57;;;;;;;0.63;0.63;;;;;;;6.49;100.00;99767.78;5148961;27;20194;-68
2022/11/29 04:03:46;;;;;;;0.63;0.63;;;;;;;6.41;100.00;99769.53;5144243;27;20605;-68
2022/11/29 04:06:26;;;;;;;0.73;0.73;;;;;;;6.45;100.00;99771.22;5145056;27;20649;-68
2022/11/29 04:09:21;;;;;;;0.70;0.70;;;;;;;6.42;100.00;99767.00;5144987;27;20658;-68
2022/11/29 04:12:21;;;;;;;0.50;0.50;;;;;;;6.44;100.00;99774.59;5148071;27;20193;-68
2022/11/29 04:15:26;;;;;;;1.20;1.20;;;;;;;6.46;100.00;99770.38;5138611;27;20216;-68
2022/11/29 04:18:17;;;;;;;0.60;0.60;;;;;;;6.51;100.00;99771.16;5135327;27;20202;-67
2022/11/29 04:21:05;;;;;;;0.77;0.77;;;;;;;6.52;100.00;99767.78;5139727;27;20254;-68
2022/11/29 04:23:53;;;;;;;0.70;0.70;;;;;;;6.48;100.00;99766.94;5145822;27;20190;-68
2022/11/29 04:26:38;;;;;;;0.60;0.60;;;;;;;6.44;100.00;99764.41;5149321;27;20677;-68
2022/11/29 04:29:29;;;;;;;0.60;0.60;;;;;;;6.28;100.00;99749.28;5144195;27;20197;-68
2022/11/29 04:32:13;;;;;;;0.60;0.60;;;;;;;6.39;100.00;99764.47;5139869;27;20213;-68
2022/11/29 04:35:04;;;;;;;2.30;0.90;;;;;;;6.41;100.00;99769.53;5143434;27;20218;-68
2022/11/29 04:37:52;;;;;;;0.60;0.60;;;;;;;6.46;100.00;99763.56;5135485;27;20209;-68
2022/11/29 04:40:48;;;;;;;0.60;0.60;;;;;;;6.47;100.00;99777.13;5140657;27;20276;-68
2022/11/29 04:43:43;;;;;;;0.80;0.80;;;;;;;6.47;100.00;99774.59;5143316;27;20648;-68
2022/11/29 04:46:35;;;;;;;0.60;0.60;;;;;;;6.44;100.00;99777.16;5143373;27;20255;-68
2022/11/29 04:49:17;;;;;;;0.50;0.50;;;;;;;6.45;100.00;99781.41;5132621;27;20243;-68
2022/11/29 04:52:01;;;;;;;0.60;0.60;;;;;;;6.41;100.00;99774.63;5134916;27;20201;-68
2022/11/29 04:54:34;;;;;;;0.70;0.70;;;;;;;6.40;100.00;99778.06;5151314;27;20197;-68
2022/11/29 04:57:08;;;;;;;0.87;0.87;;;;;;;6.41;100.00;99782.28;5142533;27;20193;-68
2022/11/29 04:59:51;;;;;;;0.80;0.80;;;;;;;6.39;100.00;99771.25;5133964;27;20253;-67
2022/11/29 05:02:33;;;;;;;0.57;0.57;;;;;;;6.37;100.00;99784.00;5138294;27;20185;-68
2022/11/29 05:05:11;;;;;;;0.80;0.80;;;;;;;6.38;100.00;99784.84;5139622;27;20225;-68
2022/11/29 05:07:47;;;;;;;0.60;0.60;;;;;;;6.39;100.00;99786.53;5139972;27;20630;-68
2022/11/29 05:10:24;;;;;;;0.60;0.60;;;;;;;6.34;100.00;99787.41;5139361;27;20571;-67
2022/11/29 05:12:59;;;;;;;0.63;0.63;;;;;;;6.41;100.00;99784.81;5143714;27;20190;-67
2022/11/29 05:16:13;;;;;;;0.63;0.63;;;;;;;6.37;100.00;99783.13;5145143;27;20209;-67
2022/11/29 05:19:03;;;;;;;0.80;0.80;;;;;;;6.36;100.00;99797.59;5131856;27;20205;-67
2022/11/29 05:21:41;;;;;;;0.50;0.50;;;;;;;6.36;100.00;99791.66;5137808;27;20277;-67
2022/11/29 05:24:24;;;;;;;0.60;0.60;;;;;;;6.35;100.00;99795.91;5143654;27;20668;-67
2022/11/29 05:26:59;;;;;;;0.70;0.70;;;;;;;6.32;100.00;99791.69;5138112;27;20194;-68
2022/11/29 05:29:34;;;;;;;0.90;0.90;;;;;;;6.37;100.00;99799.28;5137513;27;20200;-68
2022/11/29 05:32:15;;;;;;;0.90;0.90;;;;;;;6.39;100.00;99800.13;5144847;27;20196;-68
2022/11/29 05:35:26;;;;;;;6.30;1.70;;;;;;;6.42;100.00;99806.88;5145323;27;20204;-68
2022/11/29 05:37:56;;;;;;;0.90;0.90;;;;;;;6.44;100.00;99805.16;5111670;27;20212;-68
2022/11/29 05:40:43;;;;;;;0.60;0.60;;;;;;;6.49;100.00;99808.53;5141953;27;20202;-68
2022/11/29 05:43:38;;;;;;;0.60;0.60;;;;;;;6.49;100.00;99811.94;5142037;27;20572;-68
2022/11/29 05:46:12;;;;;;;0.60;0.60;;;;;;;6.51;100.00;99822.09;5140190;27;20206;-68
2022/11/29 05:48:49;;;;;;;1.07;1.07;;;;;;;6.54;100.00;99827.16;5138728;27;20213;-68
2022/11/29 05:51:22;;;;;;;0.60;0.60;;;;;;;6.54;100.00;99822.06;5146496;27;20565;-68
2022/11/29 05:53:59;;;;;;;1.13;1.13;;;;;;;6.50;100.00;99820.41;5145514;27;20254;-68
2022/11/29 05:56:35;;;;;;;2.10;2.00;;;;;;;6.50;100.00;99820.41;5138335;27;20750;-68
2022/11/29 05:59:05;;;;;;;0.90;0.90;;;;;;;6.47;100.00;99817.88;5142788;27;20250;-68
2022/11/29 06:01:41;;;;;;;0.80;0.80;;;;;;;6.45;100.00;99817.91;5135562;27;20197;-68
2022/11/29 06:04:16;;;;;;;0.80;0.80;;;;;;;6.42;100.00;99819.63;5131232;27;20221;-68
2022/11/29 06:06:46;;;;;;;0.40;0.40;;;;;;;6.39;100.00;99815.41;5139171;27;20196;-68
2022/11/29 06:09:21;;;;;;;0.57;0.57;;;;;;;6.44;100.00;99820.44;5136915;27;20251;-68
2022/11/29 06:11:52;;;;;;;0.60;0.60;;;;;;;6.43;100.00;99813.69;5136750;27;20193;-67
2022/11/29 06:14:35;;;;;;;0.50;0.50;;;;;;;6.48;100.00;99817.88;5133961;27;20198;-70
2022/11/29 06:17:32;;;;;;;0.60;0.60;;;;;;;6.47;100.00;99812.78;5131333;27;20218;-69
2022/11/29 06:20:33;;;;;;;0.67;0.67;;;;;;;6.48;100.00;99817.03;5131500;27;20213;-69
2022/11/29 06:23:27;;;;;;;0.60;0.60;;;;;;;6.44;100.00;99823.00;5127503;27;20233;-69
2022/11/29 06:26:07;;;;;;;0.57;0.57;;;;;;;6.43;100.00;99823.88;5120317;27;20205;-70
2022/11/29 06:28:46;;;;;;;0.50;0.50;;;;;;;6.38;100.00;99826.44;5128475;27;20618;-70
2022/11/29 06:31:19;;;;;;;0.67;0.67;;;;;;;6.39;100.00;99829.81;5129577;27;20201;-69
2022/11/29 06:33:56;;;;;;;0.60;0.60;;;;;;;6.34;100.00;99825.59;5129650;27;20202;-68
2022/11/29 06:36:29;;;;;;;0.60;0.60;;;;;;;6.39;100.00;99822.19;5135757;27;20312;-68
2022/11/29 06:38:56;;;;;;;0.70;0.70;;;;;;;6.34;100.00;99800.13;5138893;27;20680;-68
2022/11/29 06:41:24;;;;;;;0.40;0.40;;;;;;;6.47;100.00;99816.19;5133561;27;20706;-68
2022/11/29 06:43:52;;;;;;;0.50;0.50;;;;;;;6.50;100.00;99810.22;5138731;27;20216;-68
2022/11/29 06:46:35;;;;;;;0.40;0.40;;;;;;;6.50;100.00;99810.22;5138287;27;20194;-68
2022/11/29 06:49:08;;;;;;;0.57;0.57;;;;;;;6.53;100.00;99811.03;5142398;27;20198;-69
2022/11/29 06:51:48;;;;;;;0.50;0.50;;;;;;;6.57;100.00;99811.88;5136483;27;20202;-68
2022/11/29 06:54:28;;;;;;;0.60;0.60;;;;;;;6.56;100.00;99810.19;5135048;27;20214;-67
2022/11/29 06:57:05;;;;;;;1.20;1.00;;;;;;;6.54;100.00;99812.75;5143158;27;20213;-67
2022/11/29 06:59:49;;;;;;;0.70;0.70;;;;;;;6.58;100.00;99821.22;5137449;27;20273;-66
2022/11/29 07:02:34;;;;;;;0.57;0.57;;;;;;;6.56;100.00;99815.28;5135544;27;20265;-66
2022/11/29 07:05:11;;;;;;;0.50;0.50;;;;;;;6.57;100.00;99812.72;5136311;27;20298;-66
2022/11/29 07:07:40;;;;;;;0.70;0.70;;;;;;;6.58;100.00;99811.00;5137671;27;20672;-66
2022/11/29 07:10:15;;;;;;;1.00;1.00;;;;;;;6.58;100.00;99818.66;5147472;27;20229;-67
2022/11/29 07:12:43;;;;;;;0.70;0.70;;;;;;;6.59;100.00;99810.16;5140091;27;20598;-67
2022/11/29 07:15:15;;;;;;;0.50;0.50;;;;;;;6.58;100.00;99818.66;5142301;27;20654;-67
2022/11/29 07:17:53;;;;;;;0.60;0.60;;;;;;;6.55;100.00;99816.97;5135533;27;20220;-67
2022/11/29 07:20:31;;;;;;;0.80;0.80;;;;;;;6.46;100.00;99798.38;5132163;27;20201;-67
2022/11/29 07:23:09;;;;;;;0.70;0.70;;;;;;;6.58;100.00;99813.56;5135214;27;20665;-67
2022/11/29 07:25:43;;;;;;;0.50;0.50;;;;;;;6.54;100.00;99811.88;5140429;27;20200;-67
2022/11/29 07:28:23;;;;;;;0.80;0.80;;;;;;;6.53;100.00;99813.59;5140463;27;20205;-66
2022/11/29 07:30:58;;;;;;;0.60;0.60;;;;;;;6.58;100.00;99813.56;5146562;27;20613;-68
2022/11/29 07:33:35;;;;;;;0.60;0.60;;;;;;;6.57;100.00;99822.91;5152517;27;20619;-68
2022/11/29 07:36:13;;;;;;;0.50;0.50;;;;;;;6.59;100.00;99821.19;5147530;27;20228;-68
2022/11/29 07:38:57;;;;;;;0.60;0.60;;;;;;;6.59;100.00;99820.34;5131269;27;20193;-67
2022/11/29 07:41:30;;;;;;;0.57;0.57;;;;;;;6.59;100.00;99818.63;5131744;27;20205;-67
2022/11/29 07:44:05;;;;;;;0.40;0.40;;;;;;;6.60;100.00;99814.38;5137882;27;20202;-66
2022/11/29 07:46:32;;;;;;;0.60;0.60;;;;;;;6.58;100.00;99819.50;5138385;27;20193;-67
2022/11/29 07:48:58;;;;;;;0.63;0.63;;;;;;;6.60;100.00;99816.94;5137451;27;20204;-67
2022/11/29 07:51:25;;;;;;;0.50;0.50;;;;;;;6.60;100.00;99806.75;5139649;27;20683;-67
2022/11/29 07:53:53;;;;;;;0.50;0.50;;;;;;;6.70;100.00;99818.56;5142239;27;20198;-67
2022/11/29 07:56:20;;;;;;;0.57;0.57;;;;;;;6.74;100.00;99815.97;5141081;27;20217;-67
2022/11/29 07:58:47;;;;;;;0.60;0.60;;;;;;;6.82;100.00;99813.34;5145228;27;20602;-67
2022/11/29 08:01:14;;;;;;;0.60;0.60;;;;;;;6.88;100.00;99815.88;5134882;27;20590;-67
2022/11/29 08:03:41;;;;;;;0.67;0.67;;;;;;;6.91;100.00;99823.50;5141089;27;20231;-67
2022/11/29 08:06:08;;;;;;;0.53;0.53;;;;;;;6.91;100.00;99818.41;5141719;27;20684;-67
2022/11/29 08:08:35;;;;;;;0.53;0.53;;;;;;;6.93;100.00;99826.88;5142707;27;20194;-67
2022/11/29 08:11:09;;;;;;;0.50;0.50;;;;;;;7.03;100.00;99818.28;5144162;27;20251;-68
2022/11/29 08:13:36;;;;;;;0.57;0.57;;;;;;;7.07;100.00;99829.28;5137251;27;20182;-68
2022/11/29 08:16:03;;;;;;;0.50;0.50;;;;;;;7.12;100.00;99825.84;5141824;27;20210;-68
2022/11/29 08:18:29;;;;;;;0.50;0.50;;;;;;;7.14;100.00;99829.19;5140239;27;20230;-68
2022/11/29 08:20:56;;;;;;;0.50;0.50;;;;;;;7.13;100.00;99829.22;5136220;27;20193;-67
2022/11/29 08:23:23;;;;;;;0.50;0.50;;;;;;;7.13;100.00;99832.63;5144340;27;20201;-67
2022/11/29 08:25:49;;;;;;;0.50;0.50;;;;;;;7.11;100.00;99826.69;5144348;27;20246;-68
2022/11/29 08:28:18;;;;;;;0.60;0.60;;;;;;;7.15;100.00;99830.06;5131049;27;20194;-68
2022/11/29 08:30:44;;;;;;;0.67;0.67;;;;;;;7.19;100.00;99824.06;5140388;27;20198;-68
2022/11/29 08:33:11;;;;;;;0.70;0.70;;;;;;;7.20;100.00;99816.41;5149075;27;20197;-67
2022/11/29 08:35:38;;;;;;;1.27;0.97;;;;;;;7.23;100.00;99821.50;5145724;27;20228;-67
2022/11/29 08:38:05;;;;;;;0.60;0.60;;;;;;;7.25;100.00;99818.91;5142425;27;20620;-67
2022/11/29 08:40:32;;;;;;;0.50;0.50;;;;;;;7.31;100.00;99821.38;5146919;27;20218;-68
2022/11/29 08:42:59;;;;;;;0.53;0.53;;;;;;;7.30;100.00;99805.25;5144528;27;20228;-67
2022/11/29 08:45:27;;;;;;;0.73;0.73;;;;;;;7.46;100.00;99818.69;5148507;27;20198;-67
2022/11/29 08:47:54;;;;;;;0.83;0.83;;;;;;;7.50;100.00;99827.13;5144560;27;20557;-67
2022/11/29 08:50:21;;;;;;;0.70;0.70;;;;;;;7.56;100.00;99829.66;5138105;27;20194;-67
2022/11/29 08:55:36;;;;;;;0.50;0.50;;;;;;;7.66;100.00;99818.44;5134614;27;20255;-68
2022/11/29 08:58:04;;;;;;;0.60;0.60;;;;;;;7.65;100.00;99816.78;5149725;27;20269;-68
2022/11/29 09:00:33;;;;;;;0.60;0.60;;;;;;;7.69;100.00;99810.78;5137995;27;20201;-68
2022/11/29 09:05:42;;;;;;;0.60;0.60;;;;;;;7.76;100.00;99812.38;5139817;27;20274;-68
2022/11/29 09:08:09;;;;;;;0.60;0.60;;;;;;;7.83;100.00;99808.88;5139318;27;20232;-68
2022/11/29 09:10:35;;;;;;;0.60;0.60;;;;;;;7.87;100.00;99806.28;5134624;27;20202;-67
2022/11/29 09:13:02;;;;;;;0.40;0.40;;;;;;;7.95;100.00;99801.06;5136756;27;20206;-67
2022/11/29 09:15:29;;;;;;;0.50;0.50;;;;;;;7.93;100.00;99790.03;5138514;27;20263;-67
2022/11/29 09:17:57;;;;;;;0.50;0.50;;;;;;;7.99;100.00;99792.50;5138640;27;20202;-70
2022/11/29 09:20:24;;;;;;;1.07;1.00;;;;;;;7.99;100.00;99795.06;5128730;27;20205;-68
2022/11/29 09:22:51;;;;;;;1.50;1.13;;;;;;;8.04;100.00;99793.31;5125091;27;20205;-68
2022/11/29 09:25:18;;;;;;;0.73;0.73;;;;;;;8.07;100.00;99783.06;5135509;27;20206;-68
2022/11/29 09:27:45;;;;;;;0.50;0.50;;;;;;;8.08;100.00;99784.72;5134967;27;20193;-67
2022/11/29 09:30:12;;;;;;;0.40;0.40;;;;;;;8.12;100.00;99783.81;5150057;27;20194;-67
2022/11/29 09:32:39;;;;;;;0.60;0.60;;;;;;;8.17;100.00;99782.06;5142378;27;20251;-67
2022/11/29 09:35:08;;;;;;;0.87;0.87;;;;;;;8.20;100.00;99774.34;5139043;27;20245;-68
2022/11/29 09:37:35;;;;;;;0.60;0.60;;;;;;;8.18;100.00;99765.84;5148562;27;20217;-68
2022/11/29 09:40:03;;;;;;;0.50;0.50;;;;;;;8.22;100.00;99757.28;5137990;27;20669;-68
2022/11/29 09:42:47;;;;;;;0.80;0.80;;;;;;;8.26;100.00;99756.38;5148110;27;20193;-67
2022/11/29 09:45:18;;;;;;;0.93;0.93;;;;;;;8.26;100.00;99761.47;5140712;27;20196;-68
2022/11/29 09:48:10;;;;;;;0.50;0.50;;;;;;;8.16;100.00;99747.16;5134132;27;20247;-67
2022/11/29 09:50:44;;;;;;;0.50;0.50;;;;;;;8.32;100.00;99758.03;5139127;27;20201;-68
2022/11/29 09:53:38;;;;;;;0.53;0.53;;;;;;;8.41;100.00;99758.72;5144083;27;20253;-68
2022/11/29 09:56:17;;;;;;;0.50;0.50;;;;;;;8.44;100.00;99756.13;5126861;27;20217;-69
2022/11/29 09:58:49;;;;;;;0.50;0.50;;;;;;;8.44;100.00;99758.66;5135851;27;20200;-68
2022/11/29 10:01:21;;;;;;;0.50;0.50;;;;;;;8.52;100.00;99755.16;5137485;27;20209;-68
2022/11/29 10:03:52;;;;;;;0.60;0.60;;;;;;;8.55;100.00;99744.88;5139620;27;20254;-68
2022/11/29 10:06:25;;;;;;;0.60;0.60;;;;;;;8.57;100.00;99748.25;5135771;27;20307;-68
2022/11/29 10:09:01;;;;;;;0.83;0.83;;;;;;;8.60;100.00;99750.75;5131296;27;20201;-67
2022/11/29 10:11:35;;;;;;;0.60;0.60;;;;;;;8.63;100.00;99748.13;5141769;27;20228;-66
2022/11/29 10:14:11;;;;;;;0.43;0.43;;;;;;;8.67;100.00;99748.06;5135172;27;20212;-67
2022/11/29 10:16:44;;;;;;;0.60;0.60;;;;;;;8.69;100.00;99746.31;5138380;27;20664;-67
2022/11/29 10:19:19;;;;;;;0.70;0.70;;;;;;;8.62;100.00;99731.13;5131384;27;20206;-68
2022/11/29 10:21:56;;;;;;;0.50;0.50;;;;;;;8.78;100.00;99747.91;5129330;27;20203;-67
2022/11/29 10:24:25;;;;;;;0.40;0.40;;;;;;;8.82;100.00;99754.66;5139323;27;20660;-67
2022/11/29 10:26:51;;;;;;;0.70;0.70;;;;;;;8.74;100.00;99738.59;5141339;27;20197;-67
2022/11/29 10:29:18;;;;;;;0.57;0.57;;;;;;;8.79;100.00;99752.13;5140489;27;20194;-67
2022/11/29 10:31:48;;;;;;;0.50;0.50;;;;;;;8.77;100.00;99751.31;5134874;27;20198;-67
2022/11/29 10:34:17;;;;;;;0.50;0.50;;;;;;;8.72;100.00;99741.19;5138897;27;20205;-67
2022/11/29 10:36:46;;;;;;;0.50;0.50;;;;;;;8.75;100.00;99737.72;5132242;27;20270;-67
2022/11/29 10:39:21;;;;;;;0.50;0.50;;;;;;;8.69;100.00;99732.72;5143402;27;20204;-67
2022/11/29 10:41:51;;;;;;;0.60;0.60;;;;;;;8.77;100.00;99746.19;5141033;27;20200;-67
2022/11/29 10:44:19;;;;;;;0.53;0.53;;;;;;;8.77;100.00;99741.09;5129620;27;20186;-66
2022/11/29 10:46:46;;;;;;;0.57;0.57;;;;;;;8.69;100.00;99727.63;5141732;27;20246;-67
2022/11/29 10:49:15;;;;;;;0.40;0.40;;;;;;;8.67;100.00;99734.44;5138364;27;20193;-68
2022/11/29 10:51:42;;;;;;;0.50;0.50;;;;;;;8.66;100.00;99736.16;5143971;27;20193;-67
2022/11/29 10:54:28;;;;;;;0.50;0.50;;;;;;;8.70;100.00;99730.13;5138523;27;20194;-67
2022/11/29 10:56:57;;;;;;;0.60;0.60;;;;;;;8.71;100.00;99730.97;5144524;27;20216;-67
2022/11/29 10:59:25;;;;;;;0.50;0.50;;;;;;;8.70;100.00;99725.00;5137261;27;20213;-67
2022/11/29 11:01:52;;;;;;;0.47;0.47;;;;;;;8.71;100.00;99723.31;5141865;27;20720;-67
2022/11/29 11:04:27;;;;;;;1.10;1.10;;;;;;;8.72;100.00;99715.63;5144630;27;20221;-67
2022/11/29 11:06:56;;;;;;;0.50;0.50;;;;;;;8.78;100.00;99712.09;5141808;27;20280;-67
2022/11/29 11:09:31;;;;;;;0.70;0.70;;;;;;;8.88;100.00;99721.31;5136763;27;20193;-66
2022/11/29 11:12:00;;;;;;;0.60;0.60;;;;;;;8.95;100.00;99715.19;5138279;27;20197;-67
2022/11/29 11:14:29;;;;;;;0.50;0.50;;;;;;;9.02;100.00;99713.34;5149547;27;20249;-67
2022/11/29 11:16:56;;;;;;;0.40;0.40;;;;;;;9.02;100.00;99718.47;5137152;27;20274;-66
2022/11/29 11:19:29;;;;;;;0.67;0.67;;;;;;;8.92;100.00;99692.22;5141635;27;20205;-66
2022/11/29 11:21:58;;;;;;;0.40;0.40;;;;;;;9.08;100.00;99716.63;5142724;27;20194;-67
2022/11/29 11:24:29;;;;;;;0.57;0.57;;;;;;;9.08;100.00;99718.38;5143852;27;20201;-67
2022/11/29 11:26:57;;;;;;;0.53;0.53;;;;;;;9.06;100.00;99712.44;5137454;27;20205;-67
2022/11/29 11:29:27;;;;;;;0.60;0.60;;;;;;;9.08;100.00;99716.63;5138635;27;20193;-66
2022/11/29 11:31:56;;;;;;;0.50;0.50;;;;;;;9.06;100.00;99713.28;5141540;27;20198;-67
2022/11/29 11:34:30;;;;;;;1.20;1.20;;;;;;;9.06;100.00;99717.53;5137710;27;20194;-66
2022/11/29 11:37:19;;;;;;;0.40;0.40;;;;;;;9.03;100.00;99718.44;5140227;27;20232;-66
2022/11/29 11:39:48;;;;;;;0.67;0.67;;;;;;;8.98;100.00;99710.03;5134740;27;20223;-68
2022/11/29 11:42:37;;;;;;;0.50;0.50;;;;;;;8.96;100.00;99706.66;5134356;27;20198;-67
2022/11/29 11:45:30;;;;;;;0.50;0.50;;;;;;;8.98;100.00;99705.75;5132905;27;20227;-67
2022/11/29 11:47:59;;;;;;;0.50;0.50;;;;;;;8.98;100.00;99707.47;5130893;27;20558;-67
2022/11/29 11:50:32;;;;;;;0.60;0.60;;;;;;;8.95;100.00;99707.50;5131802;27;20251;-67
2022/11/29 11:53:03;;;;;;;0.67;0.67;;;;;;;8.88;100.00;99688.06;5122926;27;20210;-68
2022/11/29 11:55:35;;;;;;;0.40;0.40;;;;;;;8.99;100.00;99711.69;5136130;27;20232;-67
2022/11/29 11:58:06;;;;;;;0.60;0.60;;;;;;;8.99;100.00;99709.16;5135894;27;20235;-67
2022/11/29 12:00:43;;;;;;;0.50;0.50;;;;;;;8.93;100.00;99706.72;5144709;27;20561;-67
2022/11/29 12:03:30;;;;;;;0.60;0.60;;;;;;;8.85;100.00;99698.34;5140558;27;20227;-67
2022/11/29 12:06:01;;;;;;;0.40;0.40;;;;;;;8.90;100.00;99701.66;5146268;27;20204;-67
2022/11/29 12:08:29;;;;;;;0.60;0.60;;;;;;;9.00;100.00;99710.00;5148816;27;20189;-67
2022/11/29 12:11:05;;;;;;;0.50;0.50;;;;;;;9.02;100.00;99701.41;5143880;27;20205;-67
2022/11/29 12:13:35;;;;;;;0.53;0.53;;;;;;;9.05;100.00;99703.91;5139624;27;20197;-67